Jordan, Montana
Current Conditions -  °F | °C
As of 7:53 PM on Friday 24 Oct 2014 (Local Time) from KGGW Reporting Station
Clear Clear  
Wind Chill: 40°   Ceiling: Unl
Heat Index: 45°   Visibility: 10mi
Dew Point: 28°   Wind: 9mph
Humidity: 52%   Direction: 240°WSW
Pressure: 30.04"   Gusts: NA
Location:  47.32°N, 106.91°W
Report Text: KGGW 250153Z AUTO 24008KT 10SM CLR 07/M02 A3004 RMK AO2 SLP183 T00721022
Loading
Personal Weather Stations






























Interactive Weather Map
Tropical Storm Tracking
New forecast layout! Learn more

10-Day Weather Forecast

Advertisements
Track Severe Weather on mobile